.
WxDataArchive / Data Records for 2014-10-17
2014-10-16 October 2014 2014-10-18

Data Records for Friday, 17 October 2014

Time	Temp	Chill	HIndex	Humid	Dewpt	 Wind 	HiWind	WindDir	Rain 	Barom
-----	----	-----	------	-----	-----	------	------	-------	-----	-----
00:00	56.3	56.3	56.3	80	50.2	0	2	248	0.00	29.734 
00:05	56.3	56.3	56.3	80	50.2	0	2	248	0.00	29.734 
00:10	56.3	56.3	56.3	80	50.2	0	3	248	0.00	29.734 
00:15	56.3	56.3	56.3	80	50.2	1	3	248	0.00	29.727 
00:20	56.3	56.3	56.3	80	50.2	0	5	248	0.00	29.727 
00:25	56.2	56.2	56.2	80	50.1	1	4	248	0.00	29.727 
00:30	56.2	56.2	56.2	80	50.1	0	4	248	0.00	29.726 
00:35	56.2	56.2	56.2	80	50.1	1	6	270	0.00	29.726 
00:40	56.2	56.2	56.2	80	50.1	0	3	270	0.00	29.726 
00:45	56.0	56.0	56.0	80	49.9	0	3	270	0.00	29.721 
00:50	56.0	56.0	56.0	80	49.9	0	2	270	0.00	29.721 
00:55	55.9	55.9	55.9	80	49.8	0	1	270	0.00	29.721 
01:00	55.7	55.7	55.7	80	49.6	0	2	270	0.00	29.719 
01:05	55.7	55.7	55.7	80	49.6	0	3	270	0.00	29.719 
01:10	55.6	55.6	55.6	80	49.5	0	1	292	0.00	29.719 
01:15	55.4	55.4	55.4	81	49.7	0	2	292	0.00	29.710 
01:20	55.3	55.3	55.3	81	49.6	0	2	292	0.00	29.710 
01:25	55.3	55.3	55.3	81	49.6	0	1	292	0.00	29.710 
01:30	55.3	55.3	55.3	81	49.6	0	1	292	0.00	29.709 
01:35	55.3	55.3	55.3	81	49.6	1	3	292	0.00	29.709 
01:40	55.3	55.3	55.3	81	49.6	0	2	292	0.00	29.709 
01:45	55.3	55.3	55.3	81	49.6	0	3	292	0.00	29.705 
01:50	55.3	55.3	55.3	81	49.6	0	2	292	0.00	29.705 
01:55	55.3	55.3	55.3	81	49.6	1	3	292	0.00	29.705 
02:00	55.4	55.4	55.4	81	49.7	1	4	292	0.00	29.703 
02:05	55.4	55.4	55.4	80	49.3	0	4	292	0.00	29.703 
02:10	55.6	55.6	55.6	80	49.5	0	1	292	0.00	29.703 
02:15	55.6	55.6	55.6	80	49.5	0	2	292	0.00	29.695 
02:20	55.6	55.6	55.6	81	49.9	0	1	292	0.00	29.695 
02:25	55.6	55.6	55.6	81	49.9	0	1	292	0.00	29.695 
02:30	55.6	55.6	55.6	81	49.9	0	2	270	0.00	29.694 
02:35	55.6	55.6	55.6	82	50.2	0	1	270	0.00	29.694 
02:40	55.6	55.6	55.6	82	50.2	0	1	270	0.00	29.694 
02:45	55.6	55.6	55.6	83	50.5	0	2	270	0.00	29.682 
02:50	55.4	55.4	55.4	83	50.3	0	1	270	0.00	29.682 
02:55	55.4	55.4	55.4	83	50.3	0	2	270	0.00	29.682 
03:00	55.4	55.4	55.4	83	50.3	0	2	270	0.00	29.678 
03:05	55.4	55.4	55.4	83	50.3	0	2	270	0.00	29.678 
03:10	55.4	55.4	55.4	84	50.6	0	2	270	0.00	29.678 
03:15	55.4	55.4	55.4	83	50.3	0	2	270	0.00	29.676 
03:20	55.4	55.4	55.4	84	50.6	0	2	270	0.00	29.676 
03:25	55.4	55.4	55.4	84	50.6	0	3	270	0.00	29.676 
03:30	55.3	55.3	55.3	84	50.5	0	4	270	0.00	29.671 
03:35	55.3	55.3	55.3	84	50.5	0	3	270	0.00	29.671 
03:40	55.3	55.3	55.3	84	50.5	0	1	292	0.00	29.671 
03:45	55.3	55.3	55.3	84	50.5	0	2	292	0.00	29.660 
03:50	55.3	55.3	55.3	84	50.5	0	1	292	0.00	29.660 
03:55	55.1	55.1	55.1	84	50.4	0	1	292	0.00	29.660 
04:00	55.0	55.0	55.0	84	50.3	0	1	292	0.00	29.649 
04:05	54.8	54.8	54.8	84	50.1	0	4	292	0.00	29.649 
04:10	54.7	54.7	54.7	85	50.3	0	3	292	0.00	29.649 
04:15	54.5	54.5	54.5	85	50.1	0	1	292	0.00	29.643 
04:20	54.5	54.5	54.5	85	50.1	0	2	292	0.00	29.643 
04:25	54.4	54.4	54.4	86	50.3	0	1	292	0.00	29.643 
04:30	54.2	54.2	54.2	86	50.1	0	1	292	0.00	29.643 
04:35	54.1	54.1	54.1	86	50.0	0	1	292	0.00	29.643 
04:40	54.1	54.1	54.1	86	50.0	0	1	292	0.00	29.643 
04:45	53.9	53.9	53.9	87	50.1	0	1	292	0.00	29.635 
04:50	53.8	53.8	53.8	87	50.0	0	1	292	0.00	29.635 
04:55	53.6	53.6	53.6	87	49.8	0	1	292	0.00	29.635 
05:00	53.6	53.6	53.6	87	49.8	0	1	292	0.00	29.628 
05:05	53.5	53.5	53.5	88	50.0	0	3	292	0.00	29.628 
05:10	53.5	53.5	53.5	88	50.0	0	3	338	0.00	29.628 
05:15	53.3	53.3	53.3	88	49.8	0	1	270	0.00	29.616 
05:20	53.3	53.3	53.3	88	49.8	0	2	270	0.00	29.616 
05:25	53.2	53.2	53.2	88	49.7	0	1	270	0.00	29.616 
05:30	53.1	53.1	53.1	89	49.9	0	1	270	0.00	29.612 
05:35	53.1	53.1	53.1	89	49.9	0	1	270	0.00	29.612 
05:40	52.9	52.9	52.9	89	49.7	0	1	270	0.00	29.612 
05:45	52.9	52.9	52.9	89	49.7	0	1	270	0.00	29.607 
05:50	52.8	52.8	52.8	89	49.6	0	1	270	0.00	29.607 
05:55	52.6	52.6	52.6	89	49.4	0	1	270	0.00	29.607 
06:00	52.6	52.6	52.6	89	49.4	0	2	270	0.00	29.608 
06:05	52.6	52.6	52.6	89	49.4	0	2	270	0.00	29.608 
06:10	52.5	52.5	52.5	89	49.4	0	1	270	0.00	29.608 
06:15	52.5	52.5	52.5	90	49.7	0	1	270	0.00	29.602 
06:20	52.5	52.5	52.5	90	49.7	0	1	270	0.00	29.602 
06:25	52.5	52.5	52.5	90	49.7	0	3	270	0.00	29.602 
06:30	52.5	52.5	52.5	90	49.7	0	1	270	0.00	29.601 
06:35	52.3	52.3	52.3	90	49.5	0	3	270	0.00	29.601 
06:40	52.3	52.3	52.3	90	49.5	0	3	270	0.00	29.601 
06:45	52.3	52.3	52.3	90	49.5	0	3	270	0.00	29.598 
06:50	52.3	52.3	52.3	90	49.5	0	1	270	0.00	29.598 
06:55	52.3	52.3	52.3	90	49.5	0	2	270	0.00	29.598 
07:00	52.3	52.3	52.3	90	49.5	0	1	270	0.00	29.590 
07:05	52.2	52.2	52.2	90	49.4	0	3	270	0.00	29.590 
07:10	52.2	52.2	52.2	90	49.4	0	3	270	0.00	29.590 
07:15	52.0	52.0	52.0	90	49.2	0	1	270	0.00	29.592 
07:20	52.0	52.0	52.0	90	49.2	0	3	270	0.00	29.592 
07:25	52.0	52.0	52.0	90	49.2	0	1	270	0.00	29.592 
07:30	51.9	51.9	51.9	90	49.1	0	1	270	0.00	29.591 
07:35	51.7	51.7	51.7	90	48.9	0	1	270	0.00	29.591 
07:40	51.7	51.7	51.7	90	48.9	0	1	270	0.00	29.591 
07:45	51.7	51.7	51.7	90	48.9	0	1	270	0.00	29.595 
07:50	51.9	51.9	51.9	90	49.1	0	1	270	0.00	29.595 
07:55	51.9	51.9	51.9	90	49.1	0	1	270	0.00	29.595 
08:00	52.0	52.0	52.0	90	49.2	0	1	270	0.00	29.587 
08:05	52.0	52.0	52.0	90	49.2	0	3	270	0.00	29.587 
08:10	52.2	52.2	52.2	90	49.4	0	2	270	0.00	29.587 
08:15	52.3	52.3	52.3	89	49.2	0	3	270	0.00	29.589 
08:20	52.5	52.5	52.5	89	49.4	0	1	270	0.00	29.589 
08:25	52.5	52.5	52.5	89	49.4	0	4	248	0.00	29.589 
08:30	52.6	52.6	52.6	88	49.1	0	1	248	0.00	29.588 
08:35	52.6	52.6	52.6	88	49.1	0	2	248	0.00	29.588 
08:40	52.8	52.8	52.8	88	49.3	0	3	248	0.00	29.588 
08:45	52.8	52.8	52.8	88	49.3	0	3	292	0.00	29.589 
08:50	52.9	52.9	52.9	87	49.1	0	3	270	0.00	29.589 
08:55	53.1	53.1	53.1	87	49.3	0	2	292	0.00	29.589 
09:00	53.2	53.2	53.2	87	49.4	0	3	292	0.00	29.586 
09:05	53.3	53.3	53.3	86	49.2	0	2	292	0.00	29.586 
09:10	53.3	53.3	53.3	86	49.2	0	2	292	0.00	29.586 
09:15	53.3	53.3	53.3	86	49.2	1	4	270	0.00	29.577 
09:20	53.5	53.5	53.5	86	49.4	1	4	270	0.00	29.577 
09:25	53.6	53.6	53.6	85	49.2	0	2	248	0.00	29.577 
09:30	53.8	53.8	53.8	85	49.4	1	4	248	0.00	29.577 
09:35	54.1	54.1	54.1	85	49.7	0	1	248	0.00	29.577 
09:40	54.2	54.2	54.2	84	49.5	1	4	270	0.00	29.577 
09:45	54.5	54.5	54.5	84	49.8	0	2	270	0.00	29.576 
09:50	54.8	54.8	54.8	83	49.7	1	5	270	0.00	29.576 
09:55	55.0	55.0	55.0	83	49.9	0	4	270	0.00	29.576 
10:00	55.3	55.3	55.3	82	49.9	1	3	270	0.00	29.581 
10:05	55.6	55.6	55.6	81	49.9	1	3	270	0.00	29.581 
10:10	55.7	55.7	55.7	81	50.0	1	3	270	0.00	29.581 
10:15	56.2	56.2	56.2	80	50.1	1	5	270	0.00	29.572 
10:20	56.5	56.5	56.5	80	50.4	1	3	270	0.00	29.572 
10:25	56.6	56.6	56.6	79	50.2	1	4	270	0.00	29.572 
10:30	56.9	56.9	56.9	79	50.5	1	3	270	0.00	29.569 
10:35	57.3	57.3	57.3	77	50.1	1	3	270	0.00	29.569 
10:40	58.0	58.0	58.0	77	50.8	1	3	270	0.00	29.569 
10:45	58.3	58.3	58.3	76	50.8	1	3	270	0.00	29.568 
10:50	58.6	58.6	58.6	75	50.7	1	4	270	0.00	29.568 
10:55	58.9	58.9	58.9	74	50.6	1	3	270	0.00	29.568 
11:00	59.0	59.0	59.0	74	50.7	1	6	248	0.00	29.568 
11:05	59.2	59.2	59.2	74	50.9	1	3	292	0.00	29.568 
11:10	59.5	59.5	59.5	73	50.8	1	5	292	0.00	29.568 
11:15	59.3	59.3	59.3	73	50.6	1	5	270	0.00	29.567 
11:20	59.5	59.5	59.5	74	51.2	1	4	270	0.00	29.567 
11:25	59.8	59.8	59.8	72	50.8	1	2	270	0.00	29.567 
11:30	60.1	60.1	60.1	72	51.0	1	3	270	0.00	29.566 
11:35	60.4	60.4	60.4	71	50.9	1	4	292	0.00	29.566 
11:40	60.7	60.7	60.7	70	50.9	1	4	292	0.00	29.566 
11:45	60.9	60.9	60.9	70	51.0	1	3	315	0.00	29.566 
11:50	61.0	61.0	61.0	69	50.8	2	6	292	0.00	29.566 
11:55	61.2	61.2	61.2	69	50.9	1	5	270	0.00	29.566 
12:00	61.5	61.5	61.5	69	51.2	1	2	270	0.00	29.566 
12:05	62.0	62.0	62.0	68	51.3	1	4	270	0.00	29.566 
12:10	62.1	62.1	62.1	67	51.0	1	3	270	0.00	29.566 
12:15	62.1	62.1	62.1	66	50.6	1	6	270	0.00	29.565 
12:20	62.1	62.1	62.1	66	50.6	1	5	270	0.00	29.565 
12:25	62.4	62.4	62.4	66	50.9	1	4	270	0.00	29.565 
12:30	62.9	62.9	62.9	65	50.9	2	9	292	0.00	29.561 
12:35	62.9	62.9	62.9	63	50.1	2	5	292	0.00	29.561 
12:40	63.2	63.2	63.2	64	50.8	1	2	292	0.00	29.561 
12:45	63.7	63.7	63.7	64	51.3	1	4	292	0.00	29.561 
12:50	64.3	64.3	64.3	63	51.4	1	4	292	0.00	29.561 
12:55	64.3	64.3	64.3	60	50.1	1	4	292	0.00	29.561 
13:00	64.3	64.3	64.3	59	49.7	2	5	270	0.00	29.558 
13:05	64.3	64.3	64.3	58	49.2	2	5	270	0.00	29.558 
13:10	64.2	64.2	64.2	59	49.6	1	5	270	0.00	29.558 
13:15	64.3	64.3	64.3	59	49.7	1	4	270	0.00	29.562 
13:20	64.5	64.5	64.5	59	49.8	1	5	270	0.00	29.562 
13:25	64.5	64.5	64.5	58	49.4	1	4	270	0.00	29.562 
13:30	64.8	64.8	64.8	59	50.1	0	3	270	0.00	29.561 
13:35	65.0	65.0	65.0	59	50.3	1	6	270	0.00	29.561 
13:40	65.5	65.5	65.5	57	49.9	2	5	315	0.00	29.561 
13:45	65.8	65.8	65.8	57	50.1	2	7	292	0.00	29.559 
13:50	65.8	65.8	65.8	56	49.7	2	5	270	0.00	29.559 
13:55	65.5	65.5	65.5	56	49.4	1	5	292	0.00	29.559 
14:00	65.2	65.2	65.2	56	49.1	1	4	292	0.00	29.560 
14:05	64.8	64.8	64.8	57	49.2	1	6	270	0.00	29.560 
14:10	64.5	64.5	64.5	57	48.9	1	5	270	0.00	29.560 
14:15	64.3	64.3	64.3	54	47.3	2	6	270	0.00	29.563 
14:20	64.3	64.3	64.3	53	46.8	4	7	270	0.00	29.563 
14:25	65.0	65.0	65.0	54	47.9	2	6	292	0.00	29.563 
14:30	66.0	66.0	66.0	54	48.9	1	3	270	0.00	29.563 
14:35	66.3	66.3	66.3	50	47.1	3	6	270	0.00	29.563 
14:40	65.5	65.5	65.5	50	46.4	4	9	270	0.00	29.563 
14:45	64.8	64.8	64.8	51	46.2	4	10	270	0.00	29.566 
14:50	64.5	64.5	64.5	52	46.5	3	7	292	0.00	29.566 
14:55	64.5	64.5	64.5	53	47.0	2	5	270	0.00	29.566 
15:00	64.5	64.5	64.5	53	47.0	2	4	292	0.00	29.564 
15:05	64.7	64.7	64.7	53	47.2	2	7	270	0.00	29.564 
15:10	65.0	65.0	65.0	52	46.9	3	9	270	0.00	29.564 
15:15	64.7	64.7	64.7	53	47.2	3	7	270	0.00	29.564 
15:20	64.5	64.5	64.5	54	47.5	4	9	270	0.00	29.564 
15:25	64.5	64.5	64.5	54	47.5	3	7	270	0.00	29.564 
15:30	64.7	64.7	64.7	54	47.7	2	5	270	0.00	29.565 
15:35	64.8	64.8	64.8	54	47.8	2	7	248	0.00	29.565 
15:40	64.7	64.7	64.7	52	46.7	3	7	270	0.00	29.565 
15:45	64.3	64.3	64.3	54	47.3	3	7	292	0.00	29.567 
15:50	64.0	64.0	64.0	55	47.5	2	7	292	0.00	29.567 
15:55	63.9	63.9	63.9	56	47.9	2	6	292	0.00	29.567 
16:00	63.9	63.9	63.9	56	47.9	2	6	270	0.00	29.571 
16:05	63.7	63.7	63.7	57	48.2	1	4	248	0.00	29.571 
16:10	63.7	63.7	63.7	57	48.2	1	4	270	0.00	29.571 
16:15	63.7	63.7	63.7	55	47.2	3	10	292	0.00	29.579 
16:20	63.9	63.9	63.9	57	48.4	2	5	292	0.00	29.579 
16:25	64.2	64.2	64.2	56	48.2	3	7	270	0.00	29.579 
16:30	64.0	64.0	64.0	55	47.5	2	6	270	0.00	29.581 
16:35	63.7	63.7	63.7	55	47.2	2	10	270	0.00	29.581 
16:40	63.4	63.4	63.4	57	47.9	2	7	270	0.00	29.581 
16:45	63.2	63.2	63.2	57	47.7	2	6	270	0.00	29.592 
16:50	63.1	63.1	63.1	58	48.1	1	6	270	0.00	29.592 
16:55	62.9	62.9	62.9	58	47.9	1	5	270	0.00	29.592 
17:00	62.7	62.7	62.7	58	47.7	1	5	270	0.00	29.597 
17:05	62.6	62.6	62.6	58	47.6	3	7	270	0.00	29.597 
17:10	62.4	62.4	62.4	59	47.9	1	5	270	0.00	29.597 
17:15	62.1	62.1	62.1	60	48.0	1	5	270	0.00	29.610 
17:20	62.0	62.0	62.0	60	48.0	1	6	270	0.00	29.610 
17:25	62.0	62.0	62.0	60	48.0	1	6	270	0.00	29.610 
17:30	61.8	61.8	61.8	60	47.8	2	6	270	0.00	29.614 
17:35	61.6	61.6	61.6	60	47.6	3	7	292	0.00	29.614 
17:40	61.6	61.6	61.6	60	47.6	1	5	270	0.00	29.614 
17:45	61.5	61.5	61.5	61	47.9	1	4	270	0.00	29.614 
17:50	61.3	61.3	61.3	61	47.7	1	5	270	0.00	29.614 
17:55	61.2	61.2	61.2	61	47.6	1	5	270	0.00	29.614 
18:00	60.9	60.9	60.9	61	47.4	2	6	270	0.00	29.624 
18:05	60.7	60.7	60.7	62	47.6	1	5	270	0.00	29.624 
18:10	60.4	60.4	60.4	62	47.3	3	7	270	0.00	29.624 
18:15	60.1	60.1	60.1	63	47.5	4	10	270	0.00	29.634 
18:20	59.6	59.6	59.6	65	47.8	3	9	270	0.00	29.634 
18:25	59.0	59.0	59.0	68	48.5	2	7	270	0.00	29.634 
18:30	58.4	58.4	58.4	71	49.0	1	7	292	0.00	29.648 
18:35	58.0	58.0	58.0	72	49.0	2	6	270	0.00	29.648 
18:40	57.6	57.6	57.6	73	49.0	2	9	248	0.00	29.648 
18:45	57.3	57.3	57.3	74	49.1	1	6	270	0.00	29.651 
18:50	57.0	57.0	57.0	75	49.2	2	6	270	0.00	29.651 
18:55	56.7	56.7	56.7	77	49.6	1	7	270	0.00	29.651 
19:00	56.5	56.5	56.5	78	49.7	1	5	270	0.00	29.658 
19:05	56.3	56.3	56.3	78	49.5	0	3	270	0.00	29.658 
19:10	56.2	56.2	56.2	79	49.8	1	5	270	0.00	29.658 
19:15	56.0	56.0	56.0	79	49.6	0	3	270	0.00	29.668 
19:20	56.0	56.0	56.0	79	49.6	0	3	270	0.00	29.668 
19:25	55.9	55.9	55.9	79	49.5	0	2	270	0.00	29.668 
19:30	55.9	55.9	55.9	79	49.5	0	2	270	0.00	29.670 
19:35	56.0	56.0	56.0	79	49.6	0	4	270	0.00	29.670 
19:40	56.0	56.0	56.0	78	49.2	1	4	270	0.00	29.670 
19:45	56.2	56.2	56.2	77	49.1	1	3	270	0.00	29.682 
19:50	56.2	56.2	56.2	77	49.1	1	5	270	0.00	29.682 
19:55	56.3	56.3	56.3	76	48.8	2	5	270	0.00	29.682 
20:00	56.3	56.3	56.3	77	49.2	1	4	292	0.00	29.687 
20:05	56.0	56.0	56.0	77	48.9	2	9	292	0.00	29.687 
20:10	55.7	55.7	55.7	79	49.3	2	7	292	0.00	29.687 
20:15	55.4	55.4	55.4	80	49.3	1	6	270	0.00	29.694 
20:20	55.3	55.3	55.3	81	49.6	1	3	270	0.00	29.694 
20:25	55.1	55.1	55.1	81	49.4	1	3	270	0.00	29.694 
20:30	55.3	55.3	55.3	80	49.2	1	3	270	0.00	29.696 
20:35	55.3	55.3	55.3	80	49.2	0	4	270	0.00	29.696 
20:40	55.4	55.4	55.4	79	49.0	2	6	270	0.00	29.696 
20:45	55.6	55.6	55.6	78	48.8	1	3	270	0.00	29.698 
20:50	55.7	55.7	55.7	78	48.9	1	5	270	0.00	29.698 
20:55	55.6	55.6	55.6	78	48.8	3	9	270	0.00	29.698 
21:00	55.6	55.6	55.6	78	48.8	2	5	270	0.00	29.699 
21:05	55.4	55.4	55.4	78	48.7	1	3	270	0.00	29.699 
21:10	55.3	55.3	55.3	79	48.9	1	3	270	0.00	29.699 
21:15	55.1	55.1	55.1	79	48.7	1	3	270	0.00	29.697 
21:20	55.1	55.1	55.1	79	48.7	1	3	270	0.00	29.697 
21:25	55.1	55.1	55.1	79	48.7	1	5	270	0.00	29.697 
21:30	55.3	55.3	55.3	79	48.9	0	2	270	0.00	29.700 
21:35	55.3	55.3	55.3	78	48.6	0	3	270	0.00	29.700 
21:40	55.4	55.4	55.4	77	48.3	1	3	270	0.00	29.700 
21:45	55.4	55.4	55.4	77	48.3	1	4	270	0.00	29.707 
21:50	55.6	55.6	55.6	76	48.2	2	9	270	0.00	29.707 
21:55	55.7	55.7	55.7	76	48.3	2	7	270	0.00	29.707 
22:00	55.7	55.7	55.7	76	48.3	2	5	292	0.00	29.710 
22:05	55.6	55.6	55.6	77	48.5	3	7	270	0.00	29.710 
22:10	55.1	55.1	55.1	80	49.0	2	7	270	0.00	29.710 
22:15	54.5	54.5	54.5	82	49.1	3	8	270	0.00	29.714 
22:20	53.9	53.9	53.9	85	49.5	3	6	270	0.00	29.714 
22:25	53.5	53.5	53.5	86	49.4	1	4	270	0.00	29.714 
22:30	53.3	53.3	53.3	87	49.5	2	5	292	0.00	29.717 
22:35	53.3	53.3	53.3	87	49.5	2	5	270	0.00	29.717 
22:40	53.3	53.3	53.3	87	49.5	2	5	270	0.00	29.717 
22:45	53.3	53.3	53.3	87	49.5	1	4	270	0.00	29.724 
22:50	53.2	53.2	53.2	88	49.7	2	6	270	0.00	29.724 
22:55	53.1	53.1	53.1	88	49.6	2	5	270	0.00	29.724 
23:00	53.1	53.1	53.1	88	49.6	3	6	292	0.00	29.727 
23:05	52.9	52.9	52.9	89	49.7	2	6	270	0.00	29.727 
23:10	52.9	52.9	52.9	89	49.7	1	5	270	0.00	29.727 
23:15	52.9	52.9	52.9	89	49.7	2	9	315	0.00	29.725 
23:20	52.8	52.8	52.8	88	49.3	3	5	270	0.00	29.725 
23:25	52.8	52.8	52.8	88	49.3	4	9	270	0.00	29.725 
23:30	52.6	52.6	52.6	89	49.4	3	7	270	0.00	29.729 
23:35	52.5	52.5	52.5	89	49.4	2	5	270	0.00	29.729 
23:40	52.5	52.5	52.5	89	49.4	1	5	270	0.00	29.729 
23:45	52.5	52.5	52.5	89	49.4	1	4	270	0.00	29.731 
23:50	52.3	52.3	52.3	90	49.5	1	5	292	0.00	29.731 
23:55	52.3	52.3	52.3	90	49.5	1	3	292	0.00	29.731 

CoCoRaHS
IN-AL-39
A2 Web Hosting
Creative Commons License
GoDaddy
search engine by freefind advanced

loaded 2018-11-17 23:17:49 • last modified 2010-11-18 10:43:29
Privacy PolicyDisclaimer
• wx.awcolley.com is powered by PmWiki v.2002016 •
• all content (unless otherwise noted) © 2018 A W Colley